createdAt,value
2023-06-10T00:02:05.158Z,98420.53
2023-06-10T00:04:31.326Z,98417.84
2023-06-10T00:06:57.530Z,98410.81
2023-06-10T00:09:23.673Z,98411.91
2023-06-10T00:11:49.848Z,98413.50
2023-06-10T00:14:16.023Z,98413.50
2023-06-10T00:16:42.375Z,98422.16
2023-06-10T00:19:08.695Z,98420.69
2023-06-10T00:21:34.890Z,98413.84
2023-06-10T00:24:01.049Z,98413.50
2023-06-10T00:26:27.212Z,98423.50
2023-06-10T00:28:53.384Z,98405.66
2023-06-10T00:31:19.609Z,98410.00
2023-06-10T00:33:45.792Z,98412.13
2023-06-10T00:36:11.960Z,98411.06
2023-06-10T00:38:38.091Z,98406.72
2023-06-10T00:41:04.223Z,98403.88
2023-06-10T00:43:30.406Z,98406.50
2023-06-10T00:45:56.581Z,98406.72
2023-06-10T00:48:22.767Z,98419.41
2023-06-10T00:50:48.962Z,98414.03
2023-06-10T00:53:15.116Z,98417.75
2023-06-10T00:55:41.267Z,98429.41
2023-06-10T00:58:07.438Z,98418.59
2023-06-10T01:00:33.586Z,98429.41
2023-06-10T01:02:59.801Z,98418.59
2023-06-10T01:05:26.045Z,98419.66
2023-06-10T01:07:52.180Z,98431.53
2023-06-10T01:10:18.366Z,98424.47
2023-06-10T01:12:44.554Z,98426.13
2023-06-10T01:15:10.952Z,98421.03
2023-06-10T01:17:37.518Z,98426.94
2023-06-10T01:20:03.667Z,98428.81
2023-06-10T01:22:29.795Z,98426.38
2023-06-10T01:24:55.938Z,98419.06
2023-06-10T01:27:22.117Z,98431.75
2023-06-10T01:29:48.244Z,98432.56
2023-06-10T01:32:14.384Z,98418.66
2023-06-10T01:34:40.613Z,98428.31
2023-06-10T01:37:06.756Z,98427.16
2023-06-10T01:39:33.011Z,98433.66
2023-06-10T01:41:59.216Z,98428.25
2023-06-10T01:44:25.372Z,98429.56
2023-06-10T01:46:51.608Z,98432.00
2023-06-10T01:49:17.904Z,98419.41
2023-06-10T01:51:44.051Z,98428.25
2023-06-10T01:54:10.187Z,98429.56
2023-06-10T01:56:36.336Z,98429.56
2023-06-10T01:59:02.486Z,98426.06
2023-06-10T02:01:28.711Z,98414.31
2023-06-10T02:03:55.014Z,98413.94
2023-06-10T02:06:21.188Z,98424.16
2023-06-10T02:08:47.326Z,98422.47
2023-06-10T02:11:13.560Z,98427.88
2023-06-10T02:13:39.708Z,98428.94
2023-06-10T02:16:05.905Z,98422.75
2023-06-10T02:18:32.100Z,98425.44
2023-06-10T02:20:58.239Z,98424.63
2023-06-10T02:23:24.410Z,98429.19
2023-06-10T02:25:50.652Z,98434.59
2023-06-10T02:28:16.798Z,98429.19
2023-06-10T02:30:42.940Z,98428.16
2023-06-10T02:33:09.193Z,98428.38
2023-06-10T02:35:35.426Z,98432.16
2023-06-10T02:38:01.581Z,98432.16
2023-06-10T02:40:27.778Z,98432.16
2023-06-10T02:42:53.926Z,98437.56
2023-06-10T02:45:20.091Z,98438.34
2023-06-10T02:47:46.277Z,98427.09
2023-06-10T02:50:12.482Z,98441.88
2023-06-10T02:52:38.680Z,98438.97
2023-06-10T02:55:04.873Z,98436.72
2023-06-10T02:57:31.030Z,98435.91
2023-06-10T02:59:57.185Z,98434.13
2023-06-10T03:02:23.371Z,98437.66
2023-06-10T03:04:49.526Z,98442.09
2023-06-10T03:07:15.667Z,98435.31
2023-06-10T03:09:43.953Z,98433.81
2023-06-10T03:12:11.757Z,98434.84
2023-06-10T03:14:37.903Z,98434.97
2023-06-10T03:17:04.060Z,98436.97
2023-06-10T03:19:30.227Z,98435.59
2023-06-10T03:21:56.367Z,98434.78
2023-06-10T03:24:22.641Z,98431.50
2023-06-10T03:26:48.853Z,98430.25
2023-06-10T03:29:14.994Z,98428.53
2023-06-10T03:31:41.228Z,98429.84
2023-06-10T03:34:07.414Z,98436.31
2023-06-10T03:36:33.617Z,98427.16
2023-06-10T03:38:59.811Z,98435.97
2023-06-10T03:41:25.961Z,98429.84
2023-06-10T03:43:52.136Z,98431.97
2023-06-10T03:46:18.388Z,98432.81
2023-06-10T03:48:44.539Z,98433.84
2023-06-10T03:51:10.666Z,98436.53
2023-06-10T03:53:36.828Z,98430.34
2023-06-10T03:56:02.986Z,98435.97
2023-06-10T03:58:29.145Z,98440.06
2023-06-10T04:00:55.350Z,98447.59
2023-06-10T04:03:21.503Z,98445.13
2023-06-10T04:05:47.681Z,98447.34
2023-06-10T04:08:13.949Z,98445.94
2023-06-10T04:10:40.131Z,98454.03
2023-06-10T04:13:06.295Z,98453.03
2023-06-10T04:15:32.468Z,98447.22
2023-06-10T04:17:58.627Z,98455.88
2023-06-10T04:20:24.800Z,98454.81
2023-06-10T04:22:50.951Z,98460.22
2023-06-10T04:25:17.116Z,98450.50
2023-06-10T04:27:43.291Z,98456.69
2023-06-10T04:30:09.456Z,98458.59
2023-06-10T04:32:35.634Z,98464.22
2023-06-10T04:35:01.806Z,98464.22
2023-06-10T04:37:28.020Z,98467.72
2023-06-10T04:39:54.143Z,98475.84
2023-06-10T04:42:20.293Z,98468.81
2023-06-10T04:44:46.516Z,98475.03
2023-06-10T04:47:12.701Z,98466.91
2023-06-10T04:49:38.870Z,98475.84
2023-06-10T04:52:05.149Z,98473.41
2023-06-10T04:54:31.290Z,98473.41
2023-06-10T04:56:57.426Z,98466.63
2023-06-10T04:59:23.603Z,98476.34
2023-06-10T05:01:49.892Z,98464.72
2023-06-10T05:04:16.049Z,98469.31
2023-06-10T05:06:42.211Z,98470.94
2023-06-10T05:09:08.398Z,98463.91
2023-06-10T05:11:34.802Z,98470.94
2023-06-10T05:14:00.960Z,98466.63
2023-06-10T05:16:27.185Z,98470.94
2023-06-10T05:18:53.486Z,98469.31
2023-06-10T05:21:19.649Z,98473.63
2023-06-10T05:23:46.075Z,98474.13
2023-06-10T05:26:12.243Z,98472.81
2023-06-10T05:28:38.508Z,98472.00
2023-06-10T05:31:04.671Z,98478.00
2023-06-10T05:33:30.849Z,98471.50
2023-06-10T05:35:57.042Z,98466.06
2023-06-10T05:38:23.214Z,98466.38
2023-06-10T05:40:49.353Z,98462.56
2023-06-10T05:43:15.524Z,98464.66
2023-06-10T05:45:41.691Z,98465.72
2023-06-10T05:48:07.948Z,98474.66
2023-06-10T05:50:34.135Z,98471.09
2023-06-10T05:53:00.283Z,98467.38
2023-06-10T05:55:26.430Z,98474.66
2023-06-10T05:57:52.606Z,98474.66
2023-06-10T06:00:18.742Z,98477.34
2023-06-10T06:02:45.007Z,98469.84
2023-06-10T06:05:11.443Z,98467.38
2023-06-10T06:07:37.880Z,98474.16
2023-06-10T06:10:04.017Z,98468.41
2023-06-10T06:12:30.265Z,98466.78
2023-06-10T06:14:56.393Z,98475.69
2023-06-10T06:17:22.551Z,98463.84
2023-06-10T06:19:48.740Z,98473.81
2023-06-10T06:22:14.894Z,98473.81
2023-06-10T06:24:41.131Z,98474.66
2023-06-10T06:27:07.329Z,98473.81
2023-06-10T06:29:33.467Z,98475.47
2023-06-10T06:32:00.266Z,98480.84
2023-06-10T06:34:26.530Z,98480.03
2023-06-10T06:36:52.673Z,98483.63
2023-06-10T06:39:18.829Z,98488.72
2023-06-10T06:41:45.050Z,98494.13
2023-06-10T06:44:11.208Z,98491.41
2023-06-10T06:46:37.360Z,98487.88
2023-06-10T06:49:03.518Z,98487.88
2023-06-10T06:51:29.668Z,98489.75
2023-06-10T06:53:55.813Z,98487.88
2023-06-10T06:56:21.966Z,98490.09
2023-06-10T06:58:48.097Z,98492.22
2023-06-10T07:01:14.356Z,98493.28
2023-06-10T07:03:40.568Z,98486.84
2023-06-10T07:06:06.719Z,98496.81
2023-06-10T07:08:32.881Z,98495.84
2023-06-10T07:10:59.123Z,98496.06
2023-06-10T07:13:25.264Z,98488.47
2023-06-10T07:15:51.434Z,98492.81
2023-06-10T07:18:17.585Z,98492.81
2023-06-10T07:20:43.749Z,98504.41
2023-06-10T07:23:09.887Z,98501.72
2023-06-10T07:25:36.051Z,98511.28
2023-06-10T07:28:02.196Z,98505.81
2023-06-10T07:30:28.328Z,98503.91
2023-06-10T07:32:54.519Z,98512.00
2023-06-10T07:35:20.734Z,98504.72
2023-06-10T07:37:46.901Z,98506.38
2023-06-10T07:40:13.094Z,98507.19
2023-06-10T07:42:39.231Z,98499.91
2023-06-10T07:45:05.400Z,98495.34
2023-06-10T07:47:31.654Z,98505.91
2023-06-10T07:49:57.809Z,98504.00
2023-06-10T07:52:23.938Z,98505.91
2023-06-10T07:54:50.087Z,98506.69
2023-06-10T07:57:16.272Z,98507.72
2023-06-10T07:59:42.423Z,98513.25
2023-06-10T08:02:08.607Z,98502.47
2023-06-10T08:04:34.860Z,98495.19
2023-06-10T08:07:01.065Z,98509.75
2023-06-10T08:09:27.225Z,98515.97
2023-06-10T08:11:53.368Z,98510.34
2023-06-10T08:14:19.520Z,98505.75
2023-06-10T08:16:45.848Z,98512.75
2023-06-10T08:19:12.057Z,98514.41
2023-06-10T08:21:38.240Z,98511.97
2023-06-10T08:24:04.478Z,98523.31
2023-06-10T08:26:30.622Z,98520.63
2023-06-10T08:28:56.780Z,98512.28
2023-06-10T08:31:22.955Z,98511.47
2023-06-10T08:33:49.120Z,98518.50
2023-06-10T08:36:15.260Z,98513.13
2023-06-10T08:38:41.471Z,98518.25
2023-06-10T08:41:07.636Z,98517.22
2023-06-10T08:43:33.779Z,98516.41
2023-06-10T08:45:59.968Z,98515.31
2023-06-10T08:48:26.133Z,98511.34
2023-06-10T08:50:52.283Z,98510.25
2023-06-10T08:53:18.450Z,98517.56
2023-06-10T08:55:44.588Z,98515.66
2023-06-10T08:58:10.713Z,98511.09
2023-06-10T09:00:37.006Z,98509.53
2023-06-10T09:03:05.235Z,98517.09
2023-06-10T09:05:31.755Z,98518.72
2023-06-10T09:07:57.981Z,98514.94
2023-06-10T09:10:24.155Z,98511.44
2023-06-10T09:12:50.321Z,98512.00
2023-06-10T09:15:16.557Z,98515.53
2023-06-10T09:17:42.748Z,98507.75
2023-06-10T09:20:10.776Z,98501.78
2023-06-10T09:22:37.466Z,98510.69
2023-06-10T09:25:03.625Z,98505.28
2023-06-10T09:27:29.753Z,98499.66
2023-06-10T09:29:55.966Z,98498.94
2023-06-10T09:32:22.207Z,98494.34
2023-06-10T09:34:48.404Z,98505.38
2023-06-10T09:37:14.596Z,98498.09
2023-06-10T09:39:40.742Z,98506.44
2023-06-10T09:42:06.943Z,98505.38
2023-06-10T09:44:33.176Z,98505.16
2023-06-10T09:46:59.327Z,98499.47
2023-06-10T09:49:25.458Z,98499.47
2023-06-10T09:51:51.872Z,98500.56
2023-06-10T09:54:18.052Z,98499.59
2023-06-10T09:56:44.203Z,98496.53
2023-06-10T09:59:10.383Z,98499.59
2023-06-10T10:01:36.577Z,98497.94
2023-06-10T10:04:02.769Z,98501.44
2023-06-10T10:06:29.017Z,98492.53
2023-06-10T10:08:55.321Z,98496.88
2023-06-10T10:11:21.561Z,98500.41
2023-06-10T10:13:47.749Z,98495.81
2023-06-10T10:16:13.910Z,98492.03
2023-06-10T10:18:40.088Z,98493.69
2023-06-10T10:21:06.371Z,98488.28
2023-06-10T10:23:32.616Z,98491.81
2023-06-10T10:25:58.903Z,98492.22
2023-06-10T10:28:25.134Z,98489.44
2023-06-10T10:30:51.281Z,98490.25
2023-06-10T10:33:17.566Z,98485.66
2023-06-10T10:35:43.824Z,98490.56
2023-06-10T10:38:09.962Z,98491.63
2023-06-10T10:40:36.099Z,98482.72
2023-06-10T10:43:02.258Z,98488.69
2023-06-10T10:45:28.401Z,98494.91
2023-06-10T10:47:54.646Z,98496.31
2023-06-10T10:50:20.909Z,98476.59
2023-06-10T10:52:47.192Z,98475.50
2023-06-10T10:55:13.361Z,98480.84
2023-06-10T10:57:39.534Z,98474.69
2023-06-10T11:00:05.710Z,98483.69
2023-06-10T11:02:31.949Z,98480.41
2023-06-10T11:04:58.247Z,98479.59
2023-06-10T11:07:24.489Z,98481.50
2023-06-10T11:09:50.673Z,98483.13
2023-06-10T11:12:16.836Z,98485.81
2023-06-10T11:14:42.979Z,98474.78
2023-06-10T11:17:09.134Z,98465.84
2023-06-10T11:19:35.308Z,98467.47
2023-06-10T11:22:01.489Z,98462.88
2023-06-10T11:24:27.742Z,98453.97
2023-06-10T11:26:53.937Z,98452.94
2023-06-10T11:29:20.155Z,98448.06
2023-06-10T11:31:46.329Z,98455.13
2023-06-10T11:34:12.491Z,98449.72
2023-06-10T11:36:38.639Z,98449.47
2023-06-10T11:39:04.794Z,98450.28
2023-06-10T11:41:30.959Z,98443.00
2023-06-10T11:43:57.095Z,98442.78
2023-06-10T11:46:23.368Z,98444.38
2023-06-10T11:48:49.569Z,98443.31
2023-06-10T11:51:15.711Z,98440.88
2023-06-10T11:53:41.861Z,98435.22
2023-06-10T11:56:08.083Z,98439.56
2023-06-10T11:58:34.214Z,98438.75
2023-06-10T12:01:00.356Z,98434.16
2023-06-10T12:03:26.645Z,98439.28
2023-06-10T12:05:52.904Z,98438.47
2023-06-10T12:08:19.178Z,98436.59
2023-06-10T12:10:45.385Z,98442.00
2023-06-10T12:13:11.520Z,98435.53
2023-06-10T12:15:37.672Z,98434.72
2023-06-10T12:18:03.905Z,98434.47
2023-06-10T12:20:30.087Z,98431.75
2023-06-10T12:22:56.232Z,98427.19
2023-06-10T12:25:22.446Z,98420.97
2023-06-10T12:27:48.585Z,98424.22
2023-06-10T12:30:14.729Z,98423.41
2023-06-10T12:32:41.011Z,98428.59
2023-06-10T12:35:07.475Z,98426.69
2023-06-10T12:37:34.051Z,98423.19
2023-06-10T12:40:00.219Z,98420.22
2023-06-10T12:42:26.360Z,98414.56
2023-06-10T12:44:52.494Z,98418.06
2023-06-10T12:47:18.682Z,98414.56
2023-06-10T12:49:44.827Z,98418.06
2023-06-10T12:52:10.987Z,98412.44
2023-06-10T12:54:37.162Z,98414.28
2023-06-10T12:57:03.313Z,98417.84
2023-06-10T12:59:29.896Z,98413.25
2023-06-10T13:01:56.138Z,98412.16
2023-06-10T13:04:22.338Z,98421.13
2023-06-10T13:06:48.546Z,98414.63
2023-06-10T13:09:14.723Z,98413.53
2023-06-10T13:11:42.116Z,98411.94
2023-06-10T13:14:08.281Z,98410.84
2023-06-10T13:16:36.477Z,98401.69
2023-06-10T13:19:03.832Z,98409.78
2023-06-10T13:21:30.032Z,98406.00
2023-06-10T13:23:56.298Z,98398.72
2023-06-10T13:26:22.500Z,98405.78
2023-06-10T13:28:48.649Z,98397.66
2023-06-10T13:31:14.868Z,98397.66
2023-06-10T13:33:40.997Z,98393.31
2023-06-10T13:36:07.147Z,98395.78
2023-06-10T13:38:33.498Z,98388.47
2023-06-10T13:41:00.729Z,98394.72
2023-06-10T13:43:28.426Z,98385.78
2023-06-10T13:45:54.617Z,98390.13
2023-06-10T13:48:20.772Z,98396.38
2023-06-10T13:50:47.006Z,98389.06
2023-06-10T13:53:13.166Z,98390.72
2023-06-10T13:55:39.307Z,98389.66
2023-06-10T13:58:05.460Z,98386.94
2023-06-10T14:00:31.609Z,98385.88
2023-06-10T14:02:57.837Z,98388.31
2023-06-10T14:05:24.050Z,98393.72
2023-06-10T14:07:50.229Z,98390.22
2023-06-10T14:10:16.391Z,98391.03
2023-06-10T14:12:42.538Z,98392.69
2023-06-10T14:15:08.943Z,98387.28
2023-06-10T14:17:35.545Z,98382.69
2023-06-10T14:20:01.757Z,98386.19
2023-06-10T14:22:28.033Z,98390.78
2023-06-10T14:24:54.218Z,98392.41
2023-06-10T14:27:20.374Z,98395.91
2023-06-10T14:29:46.577Z,98395.09
2023-06-10T14:32:12.749Z,98387.00
2023-06-10T14:34:38.921Z,98388.66
2023-06-10T14:37:05.065Z,98383.25
2023-06-10T14:39:31.259Z,98380.28
2023-06-10T14:41:57.411Z,98383.78
2023-06-10T14:44:23.587Z,98386.50
2023-06-10T14:46:49.811Z,98386.25
2023-06-10T14:49:15.980Z,98372.72
2023-06-10T14:51:42.148Z,98382.47
2023-06-10T14:54:08.294Z,98381.66
2023-06-10T14:56:34.463Z,98376.81
2023-06-10T14:59:00.638Z,98370.59
2023-06-10T15:01:26.833Z,98377.63
2023-06-10T15:03:53.013Z,98377.63
2023-06-10T15:06:19.596Z,98373.06
2023-06-10T15:08:45.736Z,98371.16
2023-06-10T15:11:11.982Z,98367.66
2023-06-10T15:13:38.203Z,98370.09
2023-06-10T15:16:04.615Z,98380.91
2023-06-10T15:18:30.812Z,98370.91
2023-06-10T15:20:56.983Z,98373.59
2023-06-10T15:23:23.129Z,98364.44
2023-06-10T15:25:49.295Z,98361.72
2023-06-10T15:28:15.463Z,98357.13
2023-06-10T15:30:41.618Z,98356.06
2023-06-10T15:33:07.873Z,98362.31
2023-06-10T15:35:34.156Z,98360.41
2023-06-10T15:38:00.348Z,98357.69
2023-06-10T15:40:26.536Z,98353.09
2023-06-10T15:42:52.791Z,98352.06
2023-06-10T15:45:18.997Z,98348.50
2023-06-10T15:47:45.153Z,98342.88
2023-06-10T15:50:11.354Z,98337.47
2023-06-10T15:52:37.528Z,98343.66
2023-06-10T15:55:03.745Z,98348.28
2023-06-10T15:57:29.958Z,98343.44
2023-06-10T15:59:56.106Z,98346.94
2023-06-10T16:02:22.277Z,98345.84
2023-06-10T16:04:48.527Z,98344.00
2023-06-10T16:07:14.681Z,98347.50
2023-06-10T16:09:41.039Z,98350.22
2023-06-10T16:12:07.285Z,98339.41
2023-06-10T16:14:33.450Z,98347.25
2023-06-10T16:16:59.644Z,98335.59
2023-06-10T16:19:25.855Z,98334.56
2023-06-10T16:21:52.009Z,98339.16
2023-06-10T16:24:18.229Z,98336.97
2023-06-10T16:26:44.430Z,98334.28
2023-06-10T16:29:10.592Z,98334.28
2023-06-10T16:31:36.846Z,98340.53
2023-06-10T16:34:03.083Z,98337.56
2023-06-10T16:36:29.240Z,98341.06
2023-06-10T16:38:55.412Z,98342.72
2023-06-10T16:41:21.594Z,98344.59
2023-06-10T16:43:47.756Z,98341.06
2023-06-10T16:46:13.896Z,98333.78
2023-06-10T16:48:40.064Z,98338.94
2023-06-10T16:51:06.272Z,98337.03
2023-06-10T16:53:32.484Z,98335.16
2023-06-10T16:56:00.736Z,98343.28
2023-06-10T16:58:28.555Z,98341.38
2023-06-10T17:00:54.915Z,98345.72
2023-06-10T17:03:21.129Z,98347.59
2023-06-10T17:05:47.305Z,98345.72
2023-06-10T17:08:13.469Z,98350.06
2023-06-10T17:10:39.650Z,98342.75
2023-06-10T17:13:05.811Z,98343.56
2023-06-10T17:15:31.957Z,98356.28
2023-06-10T17:17:58.645Z,98353.34
2023-06-10T17:20:24.855Z,98356.03
2023-06-10T17:22:51.037Z,98356.03
2023-06-10T17:25:17.195Z,98356.03
2023-06-10T17:27:43.332Z,98359.56
2023-06-10T17:30:09.501Z,98360.34
2023-06-10T17:32:35.847Z,98357.66
2023-06-10T17:35:02.078Z,98351.44
2023-06-10T17:37:28.229Z,98349.31
2023-06-10T17:39:54.576Z,98350.34
2023-06-10T17:42:20.720Z,98356.31
2023-06-10T17:44:46.873Z,98358.22
2023-06-10T17:47:13.048Z,98364.44
2023-06-10T17:49:39.222Z,98363.38
2023-06-10T17:52:05.364Z,98375.00
2023-06-10T17:54:31.525Z,98380.41
2023-06-10T17:56:57.654Z,98375.00
2023-06-10T17:59:23.815Z,98379.34
2023-06-10T18:01:50.026Z,98384.75
2023-06-10T18:04:16.271Z,98387.44
2023-06-10T18:06:42.444Z,98392.84
2023-06-10T18:09:10.165Z,98406.38
2023-06-10T18:11:38.612Z,98398.25
2023-06-10T18:14:04.765Z,98405.56
2023-06-10T18:16:31.028Z,98403.69
2023-06-10T18:18:57.200Z,98407.19
2023-06-10T18:21:23.363Z,98405.56
2023-06-10T18:23:49.671Z,98406.38
2023-06-10T18:26:15.895Z,98409.09
2023-06-10T18:28:42.036Z,98413.44
2023-06-10T18:31:08.196Z,98418.84
2023-06-10T18:33:34.344Z,98416.13
2023-06-10T18:36:00.557Z,98411.78
2023-06-10T18:38:26.751Z,98418.84
2023-06-10T18:40:52.893Z,98411.78
2023-06-10T18:43:19.050Z,98410.72
2023-06-10T18:45:45.269Z,98425.06
2023-06-10T18:48:11.569Z,98420.47
2023-06-10T18:50:37.747Z,98421.28
2023-06-10T18:53:03.920Z,98431.28
2023-06-10T18:55:33.192Z,98425.88
2023-06-10T18:57:59.572Z,98427.78
2023-06-10T19:00:25.731Z,98434.00
2023-06-10T19:02:52.015Z,98435.59
2023-06-10T19:05:18.234Z,98432.09
2023-06-10T19:07:44.394Z,98437.50
2023-06-10T19:10:10.573Z,98434.00
2023-06-10T19:12:36.724Z,98436.69
2023-06-10T19:15:03.054Z,98444.81
2023-06-10T19:17:29.251Z,98442.91
2023-06-10T19:19:55.394Z,98442.09
2023-06-10T19:22:21.583Z,98444.56
2023-06-10T19:24:47.711Z,98451.84
2023-06-10T19:27:13.841Z,98446.44
2023-06-10T19:29:40.017Z,98455.38
2023-06-10T19:32:06.195Z,98449.97
2023-06-10T19:34:32.448Z,98457.81
2023-06-10T19:36:58.703Z,98457.25
2023-06-10T19:39:24.833Z,98454.31
2023-06-10T19:41:50.970Z,98467.59
2023-06-10T19:44:17.135Z,98460.50
2023-06-10T19:46:43.312Z,98465.94
2023-06-10T19:49:09.470Z,98462.16
2023-06-10T19:51:35.678Z,98465.13
2023-06-10T19:54:01.839Z,98470.53
2023-06-10T19:56:27.980Z,98460.50
2023-06-10T19:58:54.168Z,98469.72
2023-06-10T20:01:20.368Z,98479.44
2023-06-10T20:03:46.561Z,98476.75
2023-06-10T20:06:12.765Z,98477.81
2023-06-10T20:08:38.965Z,98484.06
2023-06-10T20:11:05.124Z,98484.06
2023-06-10T20:13:31.281Z,98487.56
2023-06-10T20:15:57.462Z,98487.84
2023-06-10T20:18:23.600Z,98489.69
2023-06-10T20:20:49.789Z,98496.75
2023-06-10T20:23:15.925Z,98504.88
2023-06-10T20:25:42.082Z,98507.56
2023-06-10T20:28:08.402Z,98506.78
2023-06-10T20:30:34.559Z,98504.88
2023-06-10T20:33:00.808Z,98505.94
2023-06-10T20:35:27.019Z,98513.00
2023-06-10T20:37:53.183Z,98509.47
2023-06-10T20:40:19.335Z,98514.03
2023-06-10T20:42:45.549Z,98527.56
2023-06-10T20:45:11.868Z,98522.16
2023-06-10T20:47:38.330Z,98524.03
2023-06-10T20:50:04.543Z,98525.94
2023-06-10T20:52:30.694Z,98521.34
2023-06-10T20:54:56.863Z,98517.81
2023-06-10T20:57:23.015Z,98520.53
2023-06-10T20:59:49.153Z,98523.25
2023-06-10T21:02:15.284Z,98525.94
2023-06-10T21:04:41.444Z,98519.72
2023-06-10T21:07:07.612Z,98529.47
2023-06-10T21:09:33.772Z,98522.44
2023-06-10T21:11:59.953Z,98526.75
2023-06-10T21:14:26.126Z,98521.63
2023-06-10T21:16:52.296Z,98526.19
2023-06-10T21:19:18.469Z,98526.19
2023-06-10T21:21:44.615Z,98529.72
2023-06-10T21:24:10.817Z,98525.94
2023-06-10T21:26:37.098Z,98525.38
2023-06-10T21:29:03.734Z,98521.63
2023-06-10T21:31:30.200Z,98526.19
2023-06-10T21:33:56.505Z,98519.16
2023-06-10T21:36:24.046Z,98520.78
2023-06-10T21:38:50.202Z,98522.66
2023-06-10T21:41:16.386Z,98528.06
2023-06-10T21:43:42.553Z,98527.25
2023-06-10T21:46:08.708Z,98529.97
2023-06-10T21:48:34.935Z,98524.56
2023-06-10T21:51:01.160Z,98526.44
2023-06-10T21:53:27.359Z,98518.59
2023-06-10T21:55:53.517Z,98526.44
2023-06-10T21:58:19.663Z,98526.44
2023-06-10T22:00:45.841Z,98531.06
2023-06-10T22:03:12.138Z,98526.69
2023-06-10T22:05:38.405Z,98530.22
2023-06-10T22:08:04.537Z,98532.91
2023-06-10T22:10:30.714Z,98531.28
2023-06-10T22:12:56.854Z,98533.19
2023-06-10T22:15:23.009Z,98536.69
2023-06-10T22:17:49.181Z,98527.78
2023-06-10T22:20:15.446Z,98538.59
2023-06-10T22:22:41.588Z,98526.94
2023-06-10T22:25:08.031Z,98531.28
2023-06-10T22:27:34.338Z,98531.53
2023-06-10T22:30:00.475Z,98528.81
2023-06-10T22:32:27.070Z,98530.72
2023-06-10T22:34:53.253Z,98537.22
2023-06-10T22:37:19.378Z,98529.09
2023-06-10T22:39:45.523Z,98538.84
2023-06-10T22:42:11.667Z,98539.91
2023-06-10T22:44:37.823Z,98525.31
2023-06-10T22:47:04.069Z,98527.44
2023-06-10T22:49:30.195Z,98525.56
2023-06-10T22:51:56.344Z,98524.75
2023-06-10T22:54:22.661Z,98526.63
2023-06-10T22:56:48.827Z,98527.44
2023-06-10T22:59:14.986Z,98523.13
2023-06-10T23:01:41.273Z,98525.81
2023-06-10T23:04:07.581Z,98530.41
2023-06-10T23:06:33.760Z,98533.94
2023-06-10T23:08:59.944Z,98532.28
2023-06-10T23:11:26.117Z,98530.41
2023-06-10T23:13:52.288Z,98530.41
2023-06-10T23:16:18.527Z,98533.13
2023-06-10T23:18:44.713Z,98534.19
2023-06-10T23:21:10.858Z,98532.56
2023-06-10T23:23:37.083Z,98537.97
2023-06-10T23:26:03.265Z,98533.38
2023-06-10T23:28:29.417Z,98530.09
2023-06-10T23:30:55.587Z,98539.00
2023-06-10T23:33:21.846Z,98539.81
2023-06-10T23:35:48.064Z,98537.13
2023-06-10T23:38:14.233Z,98532.78
2023-06-10T23:40:40.389Z,98535.50
2023-06-10T23:43:06.525Z,98544.41
2023-06-10T23:45:32.718Z,98543.59
2023-06-10T23:47:58.926Z,98543.59
2023-06-10T23:50:25.170Z,98543.59
2023-06-10T23:52:51.402Z,98536.56
2023-06-10T23:55:17.566Z,98540.34
2023-06-10T23:57:43.712Z,98535.72
